Time;durP1;ratioP1;P1;durP2;ratioP2;P2;SDS_P1;SDS_P2;PMS_P1;PMS_P2;Temp;Humidity;BMP_temperature;BMP_pressure;BME280_temperature;BME280_humidity;BME280_pressure;Samples;Min_cycle;Max_cycle;Signal;HPM_P1;HPM_P2
2022/09/01 00:01:40;;;;;;;3.08;2.58;;;;;;;13.53;100.00;102081.97;4952628;28;20027;-72
2022/09/01 00:04:07;;;;;;;3.22;2.28;;;;;;;13.44;100.00;102086.03;4964873;28;20070;-73
2022/09/01 00:06:33;;;;;;;4.28;2.22;;;;;;;13.37;100.00;102081.97;4963739;28;20062;-72
2022/09/01 00:09:03;;;;;;;2.90;2.60;;;;;;;13.44;100.00;102079.81;4963442;28;20052;-72
2022/09/01 00:11:29;;;;;;;5.07;2.95;;;;;;;13.45;100.00;102082.41;4963807;28;20575;-73
2022/09/01 00:13:56;;;;;;;7.05;2.60;;;;;;;13.52;100.00;102080.25;4963699;28;20062;-72
2022/09/01 00:16:22;;;;;;;5.22;2.20;;;;;;;13.42;100.00;102079.91;4964042;28;20907;-72
2022/09/01 00:18:50;;;;;;;15.40;2.95;;;;;;;13.32;100.00;102081.34;4964948;28;20050;-73
2022/09/01 00:21:18;;;;;;;2.80;2.30;;;;;;;13.41;100.00;102082.66;4965444;28;20034;-73
2022/09/01 00:23:43;;;;;;;2.85;2.00;;;;;;;13.25;100.00;102079.94;4965995;28;20046;-72
2022/09/01 00:26:09;;;;;;;3.00;1.95;;;;;;;13.21;100.00;102083.72;4965728;28;20047;-73
2022/09/01 00:28:36;;;;;;;4.05;3.05;;;;;;;13.32;100.00;102080.50;4965223;28;20034;-71
2022/09/01 00:31:05;;;;;;;3.53;2.40;;;;;;;13.19;100.00;102083.78;4963488;28;20546;-72
2022/09/01 00:33:31;;;;;;;5.57;2.50;;;;;;;13.17;100.00;102082.16;4964809;28;20102;-73
2022/09/01 00:35:56;;;;;;;3.97;2.80;;;;;;;13.15;100.00;102087.63;4965257;28;20042;-73
2022/09/01 00:38:22;;;;;;;4.50;2.28;;;;;;;13.05;100.00;102085.47;4963836;28;20065;-72
2022/09/01 00:40:48;;;;;;;6.03;2.78;;;;;;;13.06;100.00;102081.88;4965689;28;20738;-72
2022/09/01 00:43:17;;;;;;;4.40;3.05;;;;;;;12.92;100.00;102085.28;4965788;28;20049;-72
2022/09/01 00:45:43;;;;;;;5.50;2.53;;;;;;;12.94;100.00;102086.06;4952147;28;20097;-72
2022/09/01 00:48:08;;;;;;;3.92;2.88;;;;;;;12.87;100.00;102082.00;4965543;28;20270;-72
2022/09/01 00:50:35;;;;;;;3.22;2.60;;;;;;;12.83;100.00;102075.94;4964260;28;20042;-73
2022/09/01 00:53:01;;;;;;;4.97;2.63;;;;;;;12.88;100.00;102076.56;4965142;28;20037;-72
2022/09/01 00:55:32;;;;;;;5.70;2.50;;;;;;;12.74;100.00;102081.75;4963383;28;20411;-72
2022/09/01 00:58:00;;;;;;;3.17;2.40;;;;;;;12.74;100.00;102083.56;4963505;28;20125;-72
2022/09/01 01:00:30;;;;;;;6.20;3.40;;;;;;;12.69;100.00;102087.34;4965264;28;20054;-72
2022/09/01 01:02:56;;;;;;;5.10;3.13;;;;;;;12.67;100.00;102083.03;4965308;28;20039;-73
2022/09/01 01:05:26;;;;;;;4.75;3.33;;;;;;;12.72;100.00;102081.00;4963594;28;20054;-73
2022/09/01 01:07:54;;;;;;;7.95;3.10;;;;;;;12.65;100.00;102072.44;4965207;28;20039;-73
2022/09/01 01:10:21;;;;;;;3.33;2.97;;;;;;;12.71;100.00;102079.28;4965154;28;20039;-73
2022/09/01 01:12:50;;;;;;;5.57;3.17;;;;;;;12.66;100.00;102063.44;4964801;28;20042;-73
2022/09/01 01:15:17;;;;;;;4.93;3.10;;;;;;;12.80;100.00;102062.72;4964655;28;20051;-72
2022/09/01 01:17:43;;;;;;;6.43;3.20;;;;;;;12.89;100.00;102069.38;4964230;28;20130;-73
2022/09/01 01:23:39;;;;;;;4.75;3.40;;;;;;;13.10;100.00;102065.56;4962887;28;20081;-72
2022/09/01 01:26:08;;;;;;;4.53;3.00;;;;;;;13.09;100.00;102053.09;4921309;28;20047;-72
2022/09/01 01:28:37;;;;;;;5.57;2.50;;;;;;;13.21;100.00;102055.16;4963405;28;20038;-73
2022/09/01 01:31:10;;;;;;;4.75;2.30;;;;;;;13.38;100.00;102061.41;4963590;28;20110;-73
2022/09/01 01:33:43;;;;;;;4.60;2.65;;;;;;;13.40;100.00;102064.84;4963107;28;20038;-73
2022/09/01 01:36:14;;;;;;;3.08;2.60;;;;;;;13.47;100.00;102061.75;4963059;28;20819;-73
2022/09/01 01:38:46;;;;;;;9.68;3.42;;;;;;;13.54;100.00;102058.72;4963038;28;20164;-72
2022/09/01 01:41:13;;;;;;;4.93;3.03;;;;;;;13.53;100.00;102071.25;4964304;28;20117;-73
2022/09/01 01:43:39;;;;;;;4.07;2.97;;;;;;;13.50;100.00;102059.84;4962873;28;20079;-72
2022/09/01 01:46:07;;;;;;;4.60;2.35;;;;;;;13.58;100.00;102065.63;4963375;28;20361;-72
2022/09/01 01:48:38;;;;;;;5.90;2.90;;;;;;;13.48;100.00;102074.19;4962646;28;20102;-73
2022/09/01 01:51:05;;;;;;;5.20;2.83;;;;;;;13.55;100.00;102069.34;4962846;28;20046;-73
2022/09/01 01:53:32;;;;;;;3.80;3.00;;;;;;;13.50;100.00;102073.22;4962572;28;20051;-72
2022/09/01 01:55:59;;;;;;;7.45;3.88;;;;;;;13.51;100.00;102075.00;4964284;28;20042;-72
2022/09/01 01:58:29;;;;;;;4.78;2.92;;;;;;;13.51;100.00;102069.63;4962521;28;20121;-73
2022/09/01 02:00:56;;;;;;;8.88;2.88;;;;;;;13.40;100.00;102075.56;4962394;28;20087;-73
2022/09/01 02:03:25;;;;;;;6.55;3.05;;;;;;;13.41;100.00;102072.81;4962633;28;20042;-73
2022/09/01 02:05:54;;;;;;;3.97;2.95;;;;;;;13.40;100.00;102070.19;4962510;28;20069;-72
2022/09/01 02:08:24;;;;;;;7.28;3.10;;;;;;;13.37;100.00;102065.88;4962712;28;20113;-73
2022/09/01 02:10:53;;;;;;;6.43;3.63;;;;;;;13.15;100.00;102073.31;4949608;28;20090;-72
2022/09/01 02:13:24;;;;;;;4.75;3.22;;;;;;;13.15;100.00;102073.31;4961343;28;20043;-74
2022/09/01 02:15:52;;;;;;;5.75;3.15;;;;;;;12.93;100.00;102063.78;4961424;28;20075;-73
2022/09/01 02:18:26;;;;;;;5.25;3.20;;;;;;;12.90;100.00;102074.69;4962176;28;20031;-73
2022/09/01 02:20:57;;;;;;;4.82;2.95;;;;;;;12.95;100.00;102069.03;4952071;28;20766;-72
2022/09/01 02:23:24;;;;;;;7.93;2.95;;;;;;;12.83;100.00;102070.56;4961411;28;20030;-72
2022/09/01 02:25:53;;;;;;;5.05;3.05;;;;;;;12.94;100.00;102070.00;4962286;28;20558;-72
2022/09/01 02:28:20;;;;;;;5.03;3.20;;;;;;;12.92;100.00;102075.44;4964041;28;20086;-72
2022/09/01 02:30:50;;;;;;;4.57;3.25;;;;;;;12.81;100.00;102072.47;4962338;28;20456;-72
2022/09/01 02:33:18;;;;;;;5.55;3.15;;;;;;;12.90;100.00;102069.31;4962250;28;20038;-72
2022/09/01 02:36:14;;;;;;;7.32;3.30;;;;;;;12.85;100.00;102065.13;4962407;28;20121;-72
2022/09/01 02:38:43;;;;;;;7.68;3.47;;;;;;;12.78;100.00;102072.63;4942959;28;20059;-72
2022/09/01 02:41:09;;;;;;;6.68;3.03;;;;;;;12.82;100.00;102065.31;4962957;28;20038;-72
2022/09/01 02:43:34;;;;;;;7.18;3.00;;;;;;;12.94;100.00;102070.00;4961374;28;20078;-72
2022/09/01 02:46:01;;;;;;;4.78;3.40;;;;;;;12.92;100.00;102075.44;4959440;28;20037;-71
2022/09/01 02:48:31;;;;;;;5.60;3.22;;;;;;;12.82;100.00;102068.00;4959635;28;20043;-73
2022/09/01 02:51:00;;;;;;;6.72;3.40;;;;;;;12.68;100.00;102071.38;4959505;28;20038;-72
2022/09/01 02:53:27;;;;;;;3.70;2.90;;;;;;;12.57;100.00;102071.94;4963136;28;20113;-72
2022/09/01 02:55:57;;;;;;;7.40;3.15;;;;;;;12.61;100.00;102072.66;4962170;28;20108;-72
2022/09/01 02:58:31;;;;;;;8.10;3.72;;;;;;;12.64;100.00;102059.97;4959981;28;20504;-72
2022/09/01 03:00:57;;;;;;;5.10;3.17;;;;;;;12.76;100.00;102061.16;4962076;28;20637;-72
2022/09/01 03:03:24;;;;;;;7.95;3.75;;;;;;;12.82;100.00;102063.50;4962075;28;20118;-72
2022/09/01 03:05:54;;;;;;;5.63;2.90;;;;;;;12.66;100.00;102075.97;4960513;28;20089;-72
2022/09/01 03:08:20;;;;;;;5.93;2.85;;;;;;;12.73;100.00;102063.97;4961364;28;20482;-72
2022/09/01 03:10:46;;;;;;;5.47;3.28;;;;;;;12.79;100.00;102062.78;4952039;28;20405;-73
2022/09/01 03:13:18;;;;;;;6.80;3.20;;;;;;;12.79;100.00;102066.31;4957746;28;20097;-73
2022/09/01 03:15:44;;;;;;;5.80;3.15;;;;;;;12.81;100.00;102066.28;4961154;28;20559;-71
2022/09/01 03:18:12;;;;;;;4.50;3.15;;;;;;;12.68;100.00;102076.75;4961200;28;20082;-72
2022/09/01 03:20:41;;;;;;;6.55;3.08;;;;;;;12.53;100.00;102066.84;4953734;28;20089;-73
2022/09/01 03:23:07;;;;;;;4.47;3.03;;;;;;;12.57;100.00;102074.63;4962540;28;20030;-72
2022/09/01 03:25:35;;;;;;;4.40;3.67;;;;;;;12.54;100.00;102081.94;4960575;28;20031;-72
2022/09/01 03:28:01;;;;;;;5.88;3.40;;;;;;;12.37;100.00;102069.44;4961287;28;20045;-72
2022/09/01 03:30:33;;;;;;;3.55;3.25;;;;;;;12.34;100.00;102070.44;4961155;28;20053;-71
2022/09/01 03:33:00;;;;;;;4.70;3.20;;;;;;;12.35;100.00;102072.19;4962712;28;20081;-72
2022/09/01 03:35:27;;;;;;;7.40;3.35;;;;;;;12.34;100.00;102062.44;4961142;28;20039;-73
2022/09/01 03:37:57;;;;;;;4.10;3.25;;;;;;;12.40;100.00;102074.66;4961745;28;20039;-72
2022/09/01 03:40:31;;;;;;;5.47;3.67;;;;;;;12.43;100.00;102071.78;4961669;28;20038;-72
2022/09/01 03:43:02;;;;;;;5.38;3.25;;;;;;;12.36;100.00;102063.22;4950423;28;20066;-73
2022/09/01 03:45:28;;;;;;;4.93;3.22;;;;;;;12.42;100.00;102078.09;4960604;28;20043;-72
2022/09/01 03:47:55;;;;;;;4.72;2.90;;;;;;;12.37;100.00;102078.31;4960234;28;20582;-72
2022/09/01 03:50:24;;;;;;;4.85;3.55;;;;;;;12.30;100.00;102074.25;4959713;28;20039;-73
2022/09/01 03:52:55;;;;;;;3.35;2.83;;;;;;;12.29;100.00;102060.94;4960385;28;20039;-73
2022/09/01 03:55:29;;;;;;;6.93;2.87;;;;;;;12.26;100.00;102070.00;4959216;28;20125;-72
2022/09/01 03:58:05;;;;;;;3.72;2.83;;;;;;;12.24;100.00;102066.50;4958660;28;20617;-72
2022/09/01 04:00:34;;;;;;;3.03;2.70;;;;;;;12.31;100.00;102067.09;4958858;28;20037;-73
2022/09/01 04:03:03;;;;;;;4.18;3.17;;;;;;;12.22;100.00;102051.50;4959641;28;20042;-73
2022/09/01 04:05:32;;;;;;;4.22;2.90;;;;;;;12.15;100.00;102061.66;4960189;28;20057;-71
2022/09/01 04:08:06;;;;;;;5.90;3.33;;;;;;;12.06;100.00;102067.47;4960214;28;20039;-72
2022/09/01 04:10:36;;;;;;;4.20;2.80;;;;;;;12.11;100.00;102058.25;4963199;28;20352;-73
2022/09/01 04:13:03;;;;;;;3.70;3.05;;;;;;;12.01;100.00;102064.16;4964265;28;20049;-72
2022/09/01 04:15:28;;;;;;;12.90;3.17;;;;;;;11.89;100.00;102070.94;4964309;28;20042;-72
2022/09/01 04:18:08;;;;;;;8.35;3.30;;;;;;;12.02;100.00;102065.88;4964211;28;20843;-72
2022/09/01 04:20:47;;;;;;;4.28;2.65;;;;;;;12.01;100.00;102066.81;4964441;28;20129;-74
2022/09/01 04:23:22;;;;;;;5.32;2.50;;;;;;;11.99;100.00;102063.34;4966058;28;20047;-72
2022/09/01 04:25:52;;;;;;;3.72;2.80;;;;;;;12.04;100.00;102053.28;4964573;28;20054;-73
2022/09/01 04:28:25;;;;;;;7.35;3.45;;;;;;;12.07;100.00;102051.31;4964283;28;20578;-73
2022/09/01 04:30:54;;;;;;;5.45;2.95;;;;;;;12.13;100.00;102056.34;4964565;28;20853;-73
2022/09/01 04:33:26;;;;;;;2.88;2.53;;;;;;;12.01;100.00;102050.78;4964201;28;20039;-73
2022/09/01 04:35:55;;;;;;;3.15;2.35;;;;;;;11.99;100.00;102058.84;4964652;28;20547;-72
2022/09/01 04:38:23;;;;;;;4.63;2.83;;;;;;;12.03;100.00;102048.88;4964568;28;20050;-73
2022/09/01 04:40:50;;;;;;;3.90;3.00;;;;;;;12.01;100.00;102051.66;4963780;28;20070;-73
2022/09/01 04:43:16;;;;;;;6.07;2.85;;;;;;;11.95;100.00;102057.31;4963791;28;20138;-72
2022/09/01 04:45:44;;;;;;;7.47;2.85;;;;;;;11.89;100.00;102052.25;4963641;28;20394;-72
2022/09/01 04:48:09;;;;;;;6.10;2.88;;;;;;;11.88;100.00;102048.69;4963621;28;20054;-73
2022/09/01 04:50:36;;;;;;;4.07;2.65;;;;;;;11.88;100.00;102055.84;4965459;28;20047;-73
2022/09/01 04:53:17;;;;;;;4.38;3.00;;;;;;;11.83;100.00;102058.75;4963570;28;20043;-73
2022/09/01 04:55:46;;;;;;;7.05;2.78;;;;;;;11.89;100.00;102057.59;4963817;28;20034;-73
2022/09/01 04:58:16;;;;;;;3.80;2.80;;;;;;;11.89;100.00;102052.25;4948194;28;20042;-73
2022/09/01 05:00:50;;;;;;;4.97;3.20;;;;;;;11.95;100.00;102069.78;4963753;28;20062;-72
2022/09/01 05:03:20;;;;;;;5.70;2.75;;;;;;;11.97;100.00;102068.78;4964040;28;20041;-73
2022/09/01 05:06:18;;;;;;;5.47;2.80;;;;;;;11.86;100.00;102065.78;4942839;29;20106;-73
2022/09/01 05:08:51;;;;;;;5.57;2.83;;;;;;;11.84;100.00;102062.28;4927032;29;20058;-72
2022/09/01 05:11:37;;;;;;;5.95;3.03;;;;;;;11.93;100.00;102065.38;4926135;29;20047;-73
2022/09/01 05:14:09;;;;;;;4.38;2.90;;;;;;;12.03;100.00;102057.78;4926357;29;20043;-72
2022/09/01 05:16:36;;;;;;;4.95;3.05;;;;;;;12.11;100.00;102058.25;4926275;29;20054;-72
2022/09/01 05:19:02;;;;;;;5.53;3.75;;;;;;;12.00;100.00;102049.91;4942380;29;20055;-73
2022/09/01 05:21:33;;;;;;;3.58;2.92;;;;;;;12.09;100.00;102062.81;4939404;28;20051;-73
2022/09/01 05:24:00;;;;;;;8.13;3.67;;;;;;;12.09;100.00;102075.31;4940169;29;20039;-72
2022/09/01 05:26:30;;;;;;;5.30;3.08;;;;;;;12.18;100.00;102066.84;4926570;29;20632;-73
2022/09/01 05:28:59;;;;;;;3.78;2.90;;;;;;;12.16;100.00;102069.59;4942795;29;20063;-73
2022/09/01 05:31:32;;;;;;;5.20;2.80;;;;;;;12.20;100.00;102073.00;4943251;29;20859;-73
2022/09/01 05:33:57;;;;;;;4.50;2.85;;;;;;;12.19;100.00;102069.41;4942835;29;20052;-71
2022/09/01 05:36:24;;;;;;;5.47;3.40;;;;;;;12.29;100.00;102074.31;4943412;29;20109;-73
2022/09/01 05:38:51;;;;;;;5.97;2.97;;;;;;;12.46;99.95;102076.13;4943898;29;20637;-73
2022/09/01 05:41:19;;;;;;;3.78;3.00;;;;;;;12.52;100.00;102071.31;4948053;28;20054;-73
2022/09/01 05:43:48;;;;;;;5.07;3.10;;;;;;;12.49;100.00;102073.28;4963709;28;20109;-72
2022/09/01 05:46:22;;;;;;;9.73;3.85;;;;;;;12.79;98.11;102074.34;4963629;28;20067;-74
2022/09/01 05:48:50;;;;;;;4.00;2.83;;;;;;;12.71;99.87;102079.28;4963936;28;20042;-73
2022/09/01 05:51:18;;;;;;;4.35;3.00;;;;;;;12.90;98.78;102071.09;4965004;28;20046;-73
2022/09/01 05:53:50;;;;;;;3.60;3.15;;;;;;;13.14;95.52;102080.50;4962560;28;20569;-73
2022/09/01 05:56:18;;;;;;;4.30;2.57;;;;;;;13.17;94.35;102080.34;4962354;28;20035;-73
2022/09/01 05:58:45;;;;;;;7.05;2.55;;;;;;;13.31;91.77;102076.94;4962137;28;20569;-74
2022/09/01 06:01:16;;;;;;;7.55;2.80;;;;;;;13.45;92.74;102077.06;4961857;28;20039;-73
2022/09/01 06:03:43;;;;;;;4.15;3.22;;;;;;;13.59;93.33;102076.25;4963227;28;20070;-73
2022/09/01 06:06:11;;;;;;;6.32;2.72;;;;;;;14.00;91.27;102075.72;4962732;28;20058;-73
2022/09/01 06:08:39;;;;;;;4.25;2.70;;;;;;;14.25;89.57;102081.38;4962914;28;20034;-73
2022/09/01 06:11:11;;;;;;;5.55;3.10;;;;;;;14.33;88.84;102080.06;4947042;28;20718;-73
2022/09/01 06:13:40;;;;;;;5.82;2.78;;;;;;;14.25;88.55;102080.50;4962742;28;20035;-72
2022/09/01 06:16:08;;;;;;;6.50;2.78;;;;;;;14.49;87.22;102081.78;4962554;28;20086;-73
2022/09/01 06:18:35;;;;;;;5.32;2.70;;;;;;;14.61;86.83;102080.19;4962829;28;20443;-73
2022/09/01 06:21:03;;;;;;;4.60;2.55;;;;;;;14.61;85.03;102082.88;4962318;28;20071;-73
2022/09/01 06:23:28;;;;;;;3.40;2.30;;;;;;;14.56;85.09;102087.66;4963933;28;20086;-72
2022/09/01 06:25:54;;;;;;;5.85;2.15;;;;;;;14.69;85.17;102083.25;4962522;28;20069;-72
2022/09/01 06:28:22;;;;;;;4.85;3.25;;;;;;;14.92;84.53;102073.81;4962243;28;20065;-72
2022/09/01 06:30:49;;;;;;;2.90;2.20;;;;;;;15.17;84.07;102077.66;4962636;28;20042;-72
2022/09/01 06:33:15;;;;;;;2.90;2.05;;;;;;;15.75;80.74;102074.78;4951498;28;20069;-73
2022/09/01 06:35:46;;;;;;;7.57;2.50;;;;;;;16.27;78.03;102070.47;4962064;28;20039;-72
2022/09/01 06:38:12;;;;;;;2.40;2.13;;;;;;;17.07;75.45;102068.53;4949168;28;20046;-72
2022/09/01 06:40:47;;;;;;;3.42;1.80;;;;;;;17.47;72.38;102073.72;4961961;28;20031;-72
2022/09/01 06:43:15;;;;;;;6.38;2.47;;;;;;;17.98;71.57;102076.28;4962151;28;20067;-72
2022/09/01 06:45:53;;;;;;;1.88;1.52;;;;;;;18.00;67.96;102074.31;4961497;28;20078;-72
2022/09/01 06:48:21;;;;;;;2.50;1.75;;;;;;;18.69;65.47;102071.78;4962017;28;20090;-72
2022/09/01 06:50:46;;;;;;;5.13;1.60;;;;;;;18.92;64.85;102069.97;4961872;28;20689;-71
2022/09/01 06:53:15;;;;;;;4.55;1.85;;;;;;;19.67;61.57;102076.47;4961739;28;20030;-73
2022/09/01 06:55:42;;;;;;;5.35;1.50;;;;;;;19.97;59.94;102083.06;4961912;28;20035;-73
2022/09/01 06:58:10;;;;;;;3.55;1.50;;;;;;;19.65;59.88;102072.19;4946002;28;20042;-73
2022/09/01 07:00:40;;;;;;;3.78;1.83;;;;;;;19.80;58.69;102073.63;4961879;28;20066;-73
2022/09/01 07:03:12;;;;;;;5.25;1.70;;;;;;;20.43;57.36;102066.50;4961800;28;20046;-73
2022/09/01 07:06:05;;;;;;;4.10;1.42;;;;;;;20.24;56.71;102074.47;4960521;28;20106;-73
2022/09/01 07:08:57;;;;;;;5.68;1.80;;;;;;;20.32;56.81;102068.38;4902320;29;20087;-73
2022/09/01 07:11:28;;;;;;;;;;;;;;;21.14;55.35;102063.94;4903205;29;20056;-73
2022/09/01 07:13:57;;;;;;;7.53;2.03;;;;;;;20.48;57.88;102067.97;4902221;29;20030;-73
2022/09/01 07:16:25;;;;;;;5.63;2.15;;;;;;;20.35;56.86;102066.28;4886731;29;20484;-73
2022/09/01 07:18:57;;;;;;;8.20;1.75;;;;;;;20.00;58.34;102073.81;4902535;29;20048;-74
2022/09/01 07:21:23;;;;;;;;;;;;;;;20.14;57.13;102081.66;4902567;29;20793;-74
2022/09/01 07:23:50;;;;;;;10.70;2.17;;;;;;;20.27;57.20;102085.03;4901772;29;20029;-72
2022/09/01 07:26:18;;;;;;;5.13;1.75;;;;;;;20.15;57.85;102076.09;4883445;29;20099;-73
2022/09/01 07:28:45;;;;;;;5.70;1.80;;;;;;;20.83;54.66;102081.19;4898307;29;20044;-73
2022/09/01 07:31:20;;;;;;;4.78;1.73;;;;;;;20.91;55.31;102073.25;4902009;29;20055;-72
2022/09/01 07:33:48;;;;;;;4.63;1.67;;;;;;;21.15;54.89;102079.22;4901573;29;20111;-72
2022/09/01 07:36:15;;;;;;;6.20;1.92;;;;;;;20.82;56.40;102077.59;4885905;29;20736;-73
2022/09/01 07:38:41;;;;;;;7.82;2.03;;;;;;;21.34;55.47;102074.91;4885568;29;20059;-72
2022/09/01 07:41:11;;;;;;;7.85;1.90;;;;;;;21.30;54.02;102078.84;4900411;29;20071;-71
2022/09/01 07:43:59;;;;;;;5.55;1.80;;;;;;;21.01;54.24;102085.00;4897221;29;20611;-73
2022/09/01 07:47:00;;;;;;;3.15;1.63;;;;;;;21.40;53.74;102077.94;4960654;28;20078;-72
2022/09/01 07:49:26;;;;;;;6.55;1.38;;;;;;;21.64;53.20;102074.00;4962883;28;20027;-73
2022/09/01 07:51:51;;;;;;;3.08;1.35;;;;;;;21.13;52.98;102080.34;4962963;28;20039;-73
2022/09/01 07:54:20;;;;;;;3.08;1.50;;;;;;;20.88;54.60;102070.78;4963898;28;20770;-74
2022/09/01 07:56:46;;;;;;;1.83;1.25;;;;;;;21.23;52.95;102081.25;4964136;28;20043;-73
2022/09/01 07:59:13;;;;;;;4.55;1.40;;;;;;;21.61;54.08;102077.00;4964086;28;20097;-73
2022/09/01 08:01:46;;;;;;;3.10;1.55;;;;;;;21.82;54.14;102083.19;4963652;28;20049;-73
2022/09/01 08:04:12;;;;;;;5.70;1.75;;;;;;;22.09;52.17;102079.78;4964215;28;20039;-72
2022/09/01 08:06:40;;;;;;;6.53;1.55;;;;;;;22.07;53.48;102072.78;4954373;28;20471;-72
2022/09/01 08:09:07;;;;;;;4.07;1.30;;;;;;;21.81;53.90;102070.59;4964543;28;20067;-73
2022/09/01 08:11:33;;;;;;;9.23;1.67;;;;;;;21.83;52.37;102073.16;4963908;28;20035;-72
2022/09/01 08:13:59;;;;;;;2.75;1.30;;;;;;;22.11;53.76;102068.81;4966162;28;20042;-73
2022/09/01 08:16:26;;;;;;;3.65;1.70;;;;;;;22.37;53.15;102067.22;4967789;28;20050;-73
2022/09/01 08:18:53;;;;;;;4.00;1.17;;;;;;;22.16;51.42;102074.66;4963320;28;20043;-72
2022/09/01 08:21:25;;;;;;;1.58;1.05;;;;;;;21.89;51.81;102073.47;4968370;28;20034;-72
2022/09/01 08:23:57;;;;;;;5.32;1.63;;;;;;;22.08;51.21;102071.75;4962910;28;20053;-73
2022/09/01 08:26:25;;;;;;;3.83;1.15;;;;;;;21.94;51.66;102075.78;4967268;28;20118;-72
2022/09/01 08:28:52;;;;;;;6.13;1.05;;;;;;;22.31;50.93;102066.94;4964979;28;21442;-73
2022/09/01 08:31:19;;;;;;;5.28;1.73;;;;;;;22.33;51.02;102065.78;4963698;28;20431;-72
2022/09/01 08:33:47;;;;;;;3.50;1.23;;;;;;;22.70;52.06;102068.63;4963580;28;20039;-73
2022/09/01 08:36:15;;;;;;;1.83;1.13;;;;;;;22.49;51.08;102071.53;4963818;28;20050;-73
2022/09/01 08:38:41;;;;;;;2.10;1.10;;;;;;;22.11;49.98;102075.09;4963713;28;20848;-73
2022/09/01 08:41:21;;;;;;;3.88;1.13;;;;;;;22.07;50.82;102076.34;4963656;28;20039;-74
2022/09/01 08:44:02;;;;;;;9.00;1.45;;;;;;;21.81;52.20;102083.31;4948358;28;20631;-72
2022/09/01 08:46:37;;;;;;;4.60;1.08;;;;;;;22.07;49.19;102070.06;4957677;28;20097;-72
2022/09/01 08:49:15;;;;;;;5.47;0.90;;;;;;;22.10;49.88;102069.78;4975212;28;20042;-73
2022/09/01 08:52:29;;;;;;;2.50;0.80;;;;;;;22.08;47.68;102075.34;4965086;28;20120;-73
2022/09/01 08:55:16;;;;;;;6.18;1.25;;;;;;;;;;4957359;28;20719;-73
2022/09/01 08:57:44;;;;;;;4.55;1.15;;;;;;;22.30;47.77;102065.25;4960023;28;20062;-72
2022/09/01 09:00:23;;;;;;;1.20;0.88;;;;;;;22.77;48.21;102058.00;4963669;28;20057;-73
2022/09/01 09:03:22;;;;;;;3.38;1.05;;;;;;;22.44;47.45;102062.94;4959946;28;20039;-73
2022/09/01 09:06:16;;;;;;;5.47;1.23;;;;;;;22.25;47.50;102054.78;4964984;28;20133;-73
2022/09/01 09:09:04;;;;;;;1.33;0.80;;;;;;;22.57;46.01;102061.75;4964981;28;20047;-72
2022/09/01 09:11:51;;;;;;;0.85;0.65;;;;;;;22.88;44.94;102046.09;4967321;28;20522;-72
2022/09/01 09:14:31;;;;;;;3.50;0.82;;;;;;;22.83;45.31;102057.41;4967489;28;20507;-71
2022/09/01 09:16:57;;;;;;;1.90;0.90;;;;;;;23.09;45.67;102052.19;4959005;28;20149;-72
2022/09/01 09:19:30;;;;;;;1.33;0.70;;;;;;;22.80;45.02;102040.53;4966909;28;20101;-73
2022/09/01 09:21:58;;;;;;;6.28;0.93;;;;;;;23.05;44.40;102047.22;4964639;28;20043;-73
2022/09/01 09:24:51;;;;;;;4.15;1.00;;;;;;;22.77;43.61;102049.84;4964468;28;20795;-73
2022/09/01 09:27:22;;;;;;;5.53;1.70;;;;;;;22.85;43.85;102046.41;4977350;28;20031;-73
2022/09/01 09:29:51;;;;;;;1.40;0.70;;;;;;;22.72;44.39;102042.13;4967976;28;20046;-73
2022/09/01 09:32:16;;;;;;;2.00;0.55;;;;;;;22.99;43.92;102035.94;4972706;28;20042;-72
2022/09/01 09:34:42;;;;;;;1.85;0.75;;;;;;;22.84;43.83;102036.50;4964233;28;20729;-73
2022/09/01 09:37:28;;;;;;;0.95;0.80;;;;;;;23.15;43.07;102026.25;4963768;28;20068;-72
2022/09/01 09:40:08;;;;;;;6.68;1.10;;;;;;;23.21;43.82;102036.53;4959592;28;20089;-74
2022/09/01 09:42:38;;;;;;;2.13;1.00;;;;;;;22.70;43.07;102025.09;4965648;28;20082;-73
2022/09/01 09:45:04;;;;;;;1.65;1.10;;;;;;;22.92;44.06;102025.78;4963890;28;20049;-72
2022/09/01 09:47:40;;;;;;;0.80;0.50;;;;;;;22.87;43.37;102017.16;4962391;28;20089;-72
2022/09/01 09:50:21;;;;;;;2.00;0.88;;;;;;;23.27;41.17;102017.72;4962405;28;20633;-73
2022/09/01 09:52:48;;;;;;;3.20;0.65;;;;;;;23.39;42.33;102020.25;4972911;28;20169;-72
2022/09/01 09:55:21;;;;;;;4.07;0.80;;;;;;;23.17;42.27;102018.78;4969032;28;20042;-73
2022/09/01 09:57:49;;;;;;;3.63;0.85;;;;;;;23.05;42.15;102020.88;4963887;28;20542;-73
2022/09/01 10:00:22;;;;;;;3.80;1.00;;;;;;;23.17;41.34;102018.78;4963502;28;20050;-73
2022/09/01 10:02:54;;;;;;;1.60;0.70;;;;;;;23.04;40.89;102018.25;4963607;28;20578;-73
2022/09/01 10:05:36;;;;;;;0.70;0.52;;;;;;;22.78;42.37;102008.03;4944861;28;20047;-74
2022/09/01 10:08:02;;;;;;;;;;;;;;;23.52;42.04;102007.97;4960145;28;20042;-72
2022/09/01 10:10:28;;;;;;;2.95;0.70;;;;;;;23.48;40.73;102014.72;4967976;28;20419;-73
2022/09/01 10:12:55;;;;;;;3.58;1.05;;;;;;;23.59;40.59;102001.91;4964414;28;20049;-73
2022/09/01 10:15:25;;;;;;;1.17;0.88;;;;;;;23.24;40.65;102009.00;4963712;28;20078;-72
2022/09/01 10:17:54;;;;;;;1.52;0.88;;;;;;;23.50;41.30;102001.84;4962880;28;20066;-73
2022/09/01 10:20:22;;;;;;;0.95;0.63;;;;;;;23.84;42.45;102009.34;4962788;28;20051;-72
2022/09/01 10:22:49;;;;;;;1.00;0.65;;;;;;;24.06;40.77;101996.28;4962898;28;20065;-73
2022/09/01 10:25:25;;;;;;;0.75;0.73;;;;;;;23.40;41.45;102001.06;4962935;28;20054;-71
2022/09/01 10:27:56;;;;;;;3.38;0.70;;;;;;;23.34;41.04;102003.50;4963000;28;20077;-73
2022/09/01 10:30:21;;;;;;;0.93;0.70;;;;;;;23.59;40.22;102007.34;4964653;28;20043;-73
2022/09/01 10:32:56;;;;;;;2.42;0.85;;;;;;;23.73;41.60;102009.59;4974648;28;20031;-72
2022/09/01 10:35:30;;;;;;;2.33;0.68;;;;;;;23.38;40.38;102005.78;4970506;28;20039;-72
2022/09/01 10:37:57;;;;;;;1.20;0.65;;;;;;;23.57;41.28;101987.59;4962578;28;20031;-72
2022/09/01 10:40:27;;;;;;;1.30;0.80;;;;;;;23.47;41.59;102002.13;4965979;28;20133;-72
2022/09/01 10:42:57;;;;;;;0.95;0.55;;;;;;;23.57;42.00;102002.06;4953855;28;20605;-73
2022/09/01 10:45:39;;;;;;;2.47;1.20;;;;;;;23.62;41.96;101997.03;4969319;28;20042;-73
2022/09/01 10:48:19;;;;;;;1.38;0.77;;;;;;;23.85;41.70;101992.03;4969903;28;20226;-73
2022/09/01 10:50:46;;;;;;;1.25;0.80;;;;;;;23.85;41.13;101991.16;4961963;28;20038;-73
2022/09/01 10:53:34;;;;;;;1.60;0.77;;;;;;;23.83;41.29;101994.03;4962151;28;20046;-73
2022/09/01 10:56:12;;;;;;;2.78;0.75;;;;;;;23.84;40.96;101987.56;4973321;28;20053;-72
2022/09/01 10:59:04;;;;;;;2.72;0.80;;;;;;;23.65;41.01;101993.19;4961879;28;20627;-73
2022/09/01 11:01:38;;;;;;;1.05;0.75;;;;;;;23.81;42.30;101987.88;4961947;28;20046;-72
2022/09/01 11:04:05;;;;;;;1.75;0.90;;;;;;;24.20;42.24;101980.22;4963957;28;20134;-71
2022/09/01 11:06:52;;;;;;;2.72;1.02;;;;;;;23.94;41.44;101968.41;4961944;28;20055;-73
2022/09/01 11:09:37;;;;;;;1.15;0.60;;;;;;;23.94;40.23;101979.31;4970292;28;20051;-72
2022/09/01 11:12:18;;;;;;;1.35;0.70;;;;;;;23.83;40.46;101968.66;4962945;28;20120;-73
2022/09/01 11:15:12;;;;;;;2.95;0.60;;;;;;;23.71;39.96;101974.34;4962395;28;20705;-74
2022/09/01 11:17:50;;;;;;;3.15;0.80;;;;;;;23.33;40.31;101974.56;4958906;28;20058;-74
2022/09/01 11:20:25;;;;;;;0.70;0.60;;;;;;;23.70;42.55;101975.34;4952620;28;20563;-71
2022/09/01 11:23:10;;;;;;;1.00;0.80;;;;;;;23.92;40.93;101963.13;4965871;28;20073;-74
2022/09/01 11:25:40;;;;;;;2.85;0.90;;;;;;;23.95;42.58;101957.38;4965728;28;20775;-71
2022/09/01 11:28:10;;;;;;;3.90;0.80;;;;;;;24.18;41.13;101962.31;4965368;28;20593;-72
2022/09/01 11:30:40;;;;;;;1.38;0.93;;;;;;;24.44;41.30;101954.16;4965430;28;20042;-72
2022/09/01 11:33:35;;;;;;;10.77;1.40;;;;;;;24.49;40.17;101965.44;4965254;28;20047;-72
2022/09/01 11:36:46;;;;;;;6.00;0.80;;;;;;;23.91;41.08;101966.88;4973984;28;20051;-71
2022/09/01 11:39:18;;;;;;;1.57;0.97;;;;;;;23.83;40.61;101955.88;4968693;28;20161;-72
2022/09/01 11:42:04;;;;;;;6.10;1.98;;;;;;;24.04;41.52;101950.94;4965230;28;20043;-71
2022/09/01 11:44:56;;;;;;;5.47;1.10;;;;;;;24.18;41.44;101956.84;4965229;28;20100;-71